7WI7 weather

CLOSED Charlies Airport
Medford, Wisconsin, United States

Public forecast

Using degrees Fahrenheit for public forecast. Weather courtesy of forecast.io.

METAR (pilot weather report)

Closest report is Taylor County Airport, 7.4 nm (13.7 km) WSW. Retrieved 2019/08/24 09:35 UTC (0 seconds ago):

KMDZ 240935Z AUTO 11003KT 10SM CLR 08/08 A3032 RMK AO2 T00820079

TAF (pilot weather forecast)

Closest forecast is Wausau Downtown Airport, 26.2 nm (48.5 km) ESE. Retrieved 2019/08/24 06:22 UTC (3 hours ago):

TAF KAUW 240520Z 2406/2506 10003KT P6SM SKC FM241500 13007KT P6SM SCT035 FM250100 12003KT P6SM SKC